| time (UTC) | temp F | wind direction | speed MPH | gust MPH | rain 1hr in | rain 24hr in | rain mn in | humidity % | barometer mb |
| 20260507081223 | 37 | 192 | 11.0 | 17.0 | 0.00 | 0.47 | 0.00 | 51 | 1007.4 |
| 20260507080252 | 37 | 193 | 11.0 | 16.0 | 0.00 | 0.47 | 0.00 | 50 | 1007.4 |
| 20260507075218 | 37 | 182 | 8.0 | 14.0 | 0.00 | 0.47 | 0.00 | 53 | 1007.6 |
| 20260507074220 | 36 | 193 | 13.0 | 15.0 | 0.00 | 0.47 | 0.00 | 57 | 1007.9 |
| 20260507073223 | 36 | 163 | 11.0 | 14.0 | 0.00 | 0.47 | 0.00 | 59 | 1007.9 |
| 20260507072230 | 36 | 181 | 7.0 | 12.0 | 0.00 | 0.47 | 0.00 | 58 | 1008.0 |
| 20260507071218 | 35 | 211 | 6.0 | 8.0 | 0.00 | 0.47 | 0.00 | 61 | 1008.0 |
| 20260507070220 | 36 | 192 | 8.0 | 13.0 | 0.00 | 0.47 | 0.00 | 62 | 1008.0 |
| 20260507065230 | 36 | 190 | 11.0 | 13.0 | 0.00 | 0.47 | 0.00 | 63 | 1008.1 |
| 20260507064216 | 35 | 188 | 10.0 | 14.0 | 0.00 | 0.47 | 0.00 | 65 | 1008.1 |
| 20260507063226 | 36 | 194 | 9.0 | 12.0 | 0.00 | 0.47 | 0.00 | 65 | 1008.1 |
| 20260507062234 | 36 | 193 | 9.0 | 11.0 | 0.00 | 0.47 | 0.00 | 67 | 1008.1 |
| 20260507061217 | 35 | 182 | 8.0 | 11.0 | 0.00 | 0.47 | 0.00 | 69 | 1008.1 |
| 20260507060224 | 34 | 166 | 5.0 | 8.0 | 0.00 | 0.47 | 0.00 | 73 | 1008.1 |
| 20260507055221 | 35 | 160 | 5.0 | 8.0 | 0.00 | 0.47 | 0.47 | 73 | 1008.1 |
| 20260507054227 | 36 | 180 | 7.0 | 8.0 | 0.00 | 0.47 | 0.47 | 73 | 1008.2 |
| 20260507053230 | 36 | 186 | 5.0 | 7.0 | 0.00 | 0.47 | 0.47 | 73 | 1008.2 |
| 20260507052232 | 36 | 186 | 5.0 | 7.0 | 0.00 | 0.47 | 0.47 | 73 | 1008.1 |
| 20260507051233 | 36 | 186 | 6.0 | 9.0 | 0.00 | 0.47 | 0.47 | 73 | 1008.1 |
| 20260507050216 | 36 | 191 | 7.0 | 9.0 | 0.00 | 0.47 | 0.47 | 73 | 1008.1 |
| 20260507045216 | 36 | 174 | 8.0 | 12.0 | 0.00 | 0.47 | 0.47 | 73 | 1008.1 |
| 20260507044224 | 36 | 186 | 9.0 | 12.0 | 0.00 | 0.47 | 0.47 | 73 | 1008.1 |
| 20260507043213 | 36 | 186 | 8.0 | 9.0 | 0.00 | 0.47 | 0.47 | 75 | 1008.1 |
| 20260507042223 | 36 | 166 | 6.0 | 8.0 | 0.00 | 0.47 | 0.47 | 75 | 1008.0 |
| 20260507041227 | 35 | 154 | 6.0 | 8.0 | 0.00 | 0.47 | 0.47 | 76 | 1008.0 |
| 20260507040254 | 35 | 171 | 6.0 | 10.0 | 0.00 | 0.47 | 0.47 | 76 | 1008.0 |
| 20260507035234 | 35 | 169 | 6.0 | 10.0 | 0.00 | 0.47 | 0.47 | 76 | 1008.0 |
| 20260507034233 | 35 | 164 | 4.0 | 8.0 | 0.00 | 0.47 | 0.47 | 76 | 1007.9 |
| 20260507033220 | 35 | 164 | 7.0 | 10.0 | 0.00 | 0.47 | 0.47 | 77 | 1007.9 |
| 20260507032223 | 34 | 161 | 5.0 | 8.0 | 0.00 | 0.47 | 0.47 | 79 | 1007.8 |
| 20260507031231 | 33 | 168 | 4.0 | 7.0 | 0.00 | 0.47 | 0.47 | 79 | 1007.6 |
| 20260507030220 | 33 | 168 | 3.0 | 8.0 | 0.00 | 0.47 | 0.47 | 78 | 1007.6 |
| 20260507025243 | 34 | 163 | 6.0 | 7.0 | 0.00 | 0.48 | 0.47 | 80 | 1007.5 |
| 20260507024222 | 33 | 180 | 5.0 | 7.0 | 0.00 | 0.48 | 0.47 | 79 | 1007.5 |
| 20260507023220 | 34 | 178 | 3.0 | 6.0 | 0.00 | 0.48 | 0.47 | 79 | 1007.5 |
| 20260507022232 | 33 | 179 | 3.0 | 6.0 | 0.01 | 0.48 | 0.47 | 80 | 1007.4 |
| 20260507021218 | 33 | 178 | 5.0 | 7.0 | 0.01 | 0.48 | 0.47 | 78 | 1007.5 |
| 20260507020225 | 34 | 178 | 3.0 | 5.0 | 0.01 | 0.48 | 0.47 | 77 | 1007.5 |
| 20260507015227 | 35 | 178 | 2.0 | 3.0 | 0.01 | 0.49 | 0.47 | 77 | 1007.7 |
| 20260507014233 | 35 | 178 | 2.0 | 3.0 | 0.01 | 0.49 | 0.47 | 77 | 1007.7 |
| 20260507013217 | 35 | 178 | 2.0 | 4.0 | 0.01 | 0.49 | 0.47 | 76 | 1007.7 |
| 20260507012233 | 36 | 178 | 2.0 | 6.0 | 0.00 | 0.48 | 0.46 | 75 | 1007.9 |
| 20260507011218 | 36 | 179 | 3.0 | 4.0 | 0.01 | 0.48 | 0.46 | 74 | 1007.9 |
| 20260507010229 | 36 | 179 | 3.0 | 7.0 | 0.01 | 0.48 | 0.46 | 73 | 1007.9 |
| 20260507005233 | 36 | 177 | 5.0 | 7.0 | 0.02 | 0.49 | 0.46 | 72 | 1008.0 |
| 20260507004219 | 36 | 173 | 5.0 | 7.0 | 0.03 | 0.49 | 0.46 | 73 | 1008.0 |
| 20260507003222 | 37 | 178 | 4.0 | 7.0 | 0.04 | 0.49 | 0.46 | 72 | 1008.0 |
| 20260507002227 | 36 | 178 | 5.0 | 7.0 | 0.05 | 0.49 | 0.46 | 72 | 1008.1 |
| 20260507001231 | 37 | 173 | 2.0 | 7.0 | 0.06 | 0.48 | 0.45 | 72 | 1008.1 |
| 20260507000235 | 38 | 165 | 1.0 | 4.0 | 0.07 | 0.48 | 0.45 | 71 | 1008.1 |
| 20260506235223 | 37 | 170 | 2.0 | 7.0 | 0.08 | 0.48 | 0.44 | 70 | 1008.1 |
| 20260506234241 | 38 | 118 | 2.0 | 5.0 | 0.09 | 0.47 | 0.43 | 68 | 1008.1 |
| 20260506233235 | 38 | 109 | 1.0 | 4.0 | 0.09 | 0.46 | 0.42 | 69 | 1008.1 |
| 20260506232244 | 39 | 109 | 1.0 | 7.0 | 0.10 | 0.45 | 0.41 | 70 | 1008.1 |
| 20260506231226 | 38 | 111 | 3.0 | 5.0 | 0.09 | 0.43 | 0.39 | 73 | 1008.2 |
| 20260506230249 | 38 | 132 | 2.0 | 4.0 | 0.09 | 0.42 | 0.38 | 71 | 1008.2 |
| 20260506225217 | 38 | 132 | 0.0 | 4.0 | 0.08 | 0.43 | 0.36 | 72 | 1008.4 |
| 20260506224235 | 36 | 214 | 0.0 | 5.0 | 0.07 | 0.41 | 0.34 | 75 | 1008.7 |
| 20260506223239 | 37 | 217 | 0.0 | 4.0 | 0.07 | 0.40 | 0.33 | 77 | 1008.7 |
| 20260506222230 | 35 | 202 | 0.0 | 4.0 | 0.05 | 0.38 | 0.31 | 79 | 1008.8 |
| 20260506221229 | 34 | 201 | 2.0 | 7.0 | 0.05 | 0.37 | 0.30 | 79 | 1008.8 |
| 20260506220219 | 33 | 189 | 4.0 | 9.0 | 0.05 | 0.36 | 0.29 | 79 | 1008.8 |
| 20260506215227 | 35 | 201 | 3.0 | 6.0 | 0.05 | 0.40 | 0.28 | 77 | 1009.1 |
| 20260506214229 | 33 | 200 | 0.0 | 4.0 | 0.05 | 0.39 | 0.27 | 80 | 1009.3 |
| 20260506213218 | 33 | 200 | 3.0 | 4.0 | 0.05 | 0.38 | 0.26 | 81 | 1009.3 |
| 20260506212229 | 33 | 201 | 3.0 | 5.0 | 0.07 | 0.38 | 0.26 | 82 | 1009.3 |
| 20260506211252 | 34 | 316 | 0.0 | 1.0 | 0.07 | 0.37 | 0.25 | 82 | 1009.4 |
| 20260506210235 | 34 | 360 | 0.0 | 3.0 | 0.07 | 0.36 | 0.24 | 83 | 1009.4 |
| 20260506205225 | 34 | 360 | 0.0 | 4.0 | 0.08 | 0.42 | 0.23 | 86 | 1009.7 |
| 20260506204230 | 34 | 360 | 3.0 | 4.0 | 0.08 | 0.41 | 0.22 | 86 | 1009.6 |
| 20260506203231 | 34 | 360 | 2.0 | 3.0 | 0.09 | 0.40 | 0.21 | 87 | 1009.6 |
| 20260506202236 | 34 | 360 | 1.0 | 4.0 | 0.09 | 0.38 | 0.19 | 87 | 1009.9 |
| 20260506201224 | 34 | 18 | 2.0 | 5.0 | 0.09 | 0.37 | 0.18 | 87 | 1009.9 |
| 20260506200227 | 34 | 360 | 2.0 | 7.0 | 0.09 | 0.36 | 0.17 | 87 | 1009.9 |
| 20260506195230 | 35 | 355 | 3.0 | 7.0 | 0.08 | 0.39 | 0.15 | 88 | 1009.9 |
| 20260506194235 | 35 | 355 | 2.0 | 5.0 | 0.07 | 0.38 | 0.14 | 88 | 1009.9 |
| 20260506193227 | 35 | 13 | 3.0 | 7.0 | 0.06 | 0.36 | 0.12 | 89 | 1009.9 |
| 20260506192249 | 35 | 23 | 5.0 | 8.0 | 0.04 | 0.34 | 0.10 | 89 | 1010.0 |
| 20260506191251 | 35 | 11 | 4.0 | 8.0 | 0.04 | 0.33 | 0.09 | 90 | 1010.0 |
| 20260506190247 | 36 | 63 | 5.0 | 9.0 | 0.03 | 0.32 | 0.08 | 91 | 1010.0 |
| 20260506185235 | 35 | 42 | 6.0 | 10.0 | 0.03 | 0.34 | 0.07 | 91 | 1010.0 |
| 20260506184224 | 35 | 22 | 6.0 | 11.0 | 0.03 | 0.34 | 0.07 | 91 | 1010.1 |
| 20260506183248 | 34 | 360 | 6.0 | 11.0 | 0.03 | 0.33 | 0.06 | 92 | 1010.1 |
| 20260506182227 | 33 | 27 | 6.0 | 11.0 | 0.03 | 0.33 | 0.06 | 92 | 1010.2 |
| 20260506181249 | 34 | 48 | 7.0 | 12.0 | 0.03 | 0.32 | 0.05 | 92 | 1009.9 |
| 20260506180217 | 34 | 360 | 3.0 | 8.0 | 0.03 | 0.32 | 0.05 | 92 | 1009.9 |
| 20260506175219 | 34 | 360 | 4.0 | 9.0 | 0.02 | 0.32 | 0.04 | 92 | 1009.9 |
| 20260506174226 | 34 | 9 | 3.0 | 10.0 | 0.03 | 0.32 | 0.04 | 92 | 1009.9 |
| 20260506173231 | 34 | 16 | 4.0 | 11.0 | 0.02 | 0.31 | 0.03 | 92 | 1009.9 |
| 20260506172231 | 34 | 17 | 6.0 | 10.0 | 0.02 | 0.31 | 0.03 | 92 | 1009.9 |
| 20260506171238 | 34 | 9 | 4.0 | 10.0 | 0.01 | 0.30 | 0.02 | 92 | 1009.3 |
| 20260506170218 | 33 | 349 | 5.0 | 11.0 | 0.01 | 0.30 | 0.02 | 92 | 1009.3 |
| 20260506165218 | 33 | 340 | 6.0 | 12.0 | 0.01 | 0.32 | 0.02 | 92 | 1009.1 |
| 20260506164221 | 34 | 360 | 5.0 | 9.0 | 0.00 | 0.31 | 0.01 | 93 | 1008.9 |
| 20260506163228 | 33 | 5 | 5.0 | 8.0 | 0.01 | 0.31 | 0.01 | 93 | 1008.9 |
| 20260506162222 | 33 | 360 | 5.0 | 9.0 | 0.01 | 0.31 | 0.01 | 93 | 1009.1 |
| 20260506161230 | 32 | 22 | 4.0 | 9.0 | 0.01 | 0.31 | 0.01 | 93 | 1008.7 |
| 20260506160254 | 32 | 5 | 0.0 | 0.0 | 0.01 | 0.31 | 0.01 | 93 | 1008.7 |
| 20260506155225 | 32 | 360 | 0.0 | 0.0 | 0.01 | 0.33 | 0.01 | 93 | 1008.8 |
| 20260506154222 | 32 | 360 | 0.0 | 0.0 | 0.01 | 0.33 | 0.01 | 93 | 1008.7 |
| 20260506153229 | 33 | 25 | 0.0 | 0.0 | 0.00 | 0.32 | 0.00 | 93 | 1008.7 |
| 20260506152234 | 32 | 25 | 0.0 | 0.0 | 0.00 | 0.32 | 0.00 | 93 | 1008.7 |
| 20260506151231 | 32 | 25 | 0.0 | 0.0 | 0.00 | 0.32 | 0.00 | 93 | 1008.3 |
| 20260506150234 | 33 | 25 | 0.0 | 0.0 | 0.00 | 0.32 | 0.00 | 93 | 1008.3 |
| 20260506145243 | 33 | 25 | 0.0 | 0.0 | 0.00 | 0.35 | 0.00 | 94 | 1008.4 |
| 20260506144225 | 32 | 25 | 0.0 | 3.0 | 0.00 | 0.35 | 0.00 | 94 | 1008.1 |
| 20260506143231 | 32 | 25 | 3.0 | 6.0 | 0.00 | 0.35 | 0.00 | 94 | 1008.1 |
| 20260506142237 | 32 | 35 | 4.0 | 7.0 | 0.00 | 0.35 | 0.00 | 94 | 1008.1 |
| 20260506141221 | 32 | 23 | 2.0 | 3.0 | 0.00 | 0.35 | 0.00 | 94 | 1008.1 |
| 20260506140258 | 32 | 23 | 3.0 | 5.0 | 0.00 | 0.35 | 0.00 | 94 | 1008.1 |
| 20260506135220 | 31 | 23 | 1.0 | 4.0 | 0.00 | 0.36 | 0.00 | 94 | 1008.0 |
| 20260506134230 | 31 | 23 | 0.0 | 3.0 | 0.00 | 0.36 | 0.00 | 94 | 1007.9 |
| 20260506133229 | 31 | 23 | 2.0 | 4.0 | 0.00 | 0.36 | 0.00 | 94 | 1007.9 |
| 20260506132229 | 31 | 23 | 2.0 | 4.0 | 0.00 | 0.36 | 0.00 | 94 | 1007.6 |
| 20260506131234 | 31 | 23 | 0.0 | 1.0 | 0.00 | 0.36 | 0.00 | 94 | 1007.0 |
| 20260506130231 | 30 | 23 | 2.0 | 4.0 | 0.00 | 0.36 | 0.00 | 94 | 1007.0 |
| 20260506125237 | 30 | 23 | 0.0 | 0.0 | 0.00 | 0.38 | 0.00 | 94 | 1007.1 |
| 20260506124238 | 30 | 23 | 0.0 | 4.0 | 0.00 | 0.38 | 0.00 | 94 | 1006.8 |
| 20260506123238 | 30 | 20 | 2.0 | 6.0 | 0.00 | 0.38 | 0.00 | 94 | 1006.8 |
| 20260506122240 | 30 | 33 | 3.0 | 4.0 | 0.00 | 0.38 | 0.00 | 94 | 1006.8 |
| 20260506121220 | 30 | 34 | 3.0 | 5.0 | 0.00 | 0.38 | 0.00 | 94 | 1006.8 |
| 20260506120219 | 29 | 43 | 2.0 | 4.0 | 0.00 | 0.38 | 0.00 | 94 | 1006.8 |
| 20260506115226 | 29 | 43 | 0.0 | 0.0 | 0.00 | 0.43 | 0.00 | 94 | 1006.6 |
| 20260506114229 | 29 | 44 | 0.0 | 4.0 | 0.00 | 0.43 | 0.00 | 94 | 1006.5 |
| 20260506113231 | 29 | 44 | 2.0 | 4.0 | 0.00 | 0.43 | 0.00 | 94 | 1006.5 |
| 20260506112234 | 29 | 44 | 2.0 | 4.0 | 0.00 | 0.43 | 0.00 | 94 | 1006.2 |
| 20260506111220 | 29 | 44 | 3.0 | 5.0 | 0.00 | 0.43 | 0.00 | 94 | 1006.3 |
| 20260506110220 | 30 | 42 | 3.0 | 7.0 | 0.00 | 0.43 | 0.00 | 94 | 1006.3 |
| 20260506105225 | 30 | 32 | 3.0 | 5.0 | 0.00 | 0.43 | 0.00 | 94 | 1006.2 |
| 20260506104229 | 30 | 38 | 2.0 | 7.0 | 0.00 | 0.43 | 0.00 | 94 | 1006.2 |
| 20260506103218 | 30 | 24 | 3.0 | 6.0 | 0.00 | 0.43 | 0.00 | 94 | 1006.2 |
| 20260506102242 | 30 | 28 | 3.0 | 4.0 | 0.00 | 0.43 | 0.00 | 94 | 1006.3 |
| 20260506101226 | 30 | 27 | 1.0 | 5.0 | 0.00 | 0.43 | 0.00 | 94 | 1006.2 |
| 20260506100228 | 30 | 27 | 3.0 | 6.0 | 0.00 | 0.43 | 0.00 | 94 | 1006.2 |
| 20260506095255 | 30 | 21 | 3.0 | 6.0 | 0.00 | 0.43 | 0.00 | 94 | 1006.2 |
| 20260506094220 | 30 | 5 | 4.0 | 7.0 | 0.00 | 0.43 | 0.00 | 94 | 1006.1 |
| 20260506093226 | 30 | 19 | 5.0 | 7.0 | 0.00 | 0.43 | 0.00 | 94 | 1006.1 |
| 20260506092226 | 30 | 19 | 4.0 | 7.0 | 0.00 | 0.43 | 0.00 | 94 | 1005.7 |
| 20260506091234 | 30 | 24 | 5.0 | 8.0 | 0.00 | 0.43 | 0.00 | 94 | 1005.8 |
| 20260506090222 | 31 | 5 | 5.0 | 8.0 | 0.00 | 0.43 | 0.00 | 94 | 1005.8 |
| 20260506085220 | 31 | 14 | 4.0 | 6.0 | 0.00 | 0.43 | 0.00 | 94 | 1005.9 |
| 20260506084220 | 31 | 14 | 2.0 | 5.0 | 0.00 | 0.43 | 0.00 | 94 | 1006.1 |
| 20260506083225 | 31 | 15 | 4.0 | 7.0 | 0.00 | 0.43 | 0.00 | 94 | 1006.1 |
| 20260506082230 | 31 | 360 | 3.0 | 8.0 | 0.00 | 0.43 | 0.00 | 94 | 1006.2 |